DAL3341 KORF-KJAX
Flight info
| Callsign | DAL3341 |
|---|---|
| Flight time | 1h 20m |
| Altitude | 40000 |
| Route | NUTIY1 NUTIY COUPN BEETN JIMAR DEEEZ Q409 SESUE ESENT LUNNI2 |
| Aircraft | A359/H-SDE2E3GHIJ1J3J4J5LM1ORWXY/LB1D1 |
Departure
| Time | 2026-05-05 11:59 |
|---|---|
| Airport | Norfolk International Airport (KORF) |
Arrival
| Time | 2026-05-05 13:19 |
|---|---|
| Airport | Jacksonville International Airport (KJAX) |
| Time | Latitude | Longitude | Altitude | Speed | Heading |
|---|---|---|---|---|---|
| 2026-05-05 11:47 | 36.89719 | -76.20116 | 43 ft | 0 kts | 225° |
| 2026-05-05 11:50 | 36.89720 | -76.20115 | 43 ft | 2 kts | 225° |
| 2026-05-05 11:50 | 36.89737 | -76.20093 | 42 ft | 4 kts | 225° |
| 2026-05-05 11:51 | 36.89756 | -76.20069 | 38 ft | 4 kts | 225° |
| 2026-05-05 11:51 | 36.89775 | -76.20045 | 40 ft | 4 kts | 225° |
| 2026-05-05 11:51 | 36.89782 | -76.20036 | 39 ft | 0 kts | 225° |
| 2026-05-05 11:53 | 36.89747 | -76.20054 | 43 ft | 9 kts | 182° |
| 2026-05-05 11:53 | 36.89729 | -76.20030 | 44 ft | 6 kts | 114° |
| 2026-05-05 11:54 | 36.89731 | -76.19959 | 43 ft | 10 kts | 69° |
| 2026-05-05 11:54 | 36.89790 | -76.19885 | 40 ft | 15 kts | 38° |
| 2026-05-05 11:54 | 36.89883 | -76.19794 | 40 ft | 19 kts | 38° |
| 2026-05-05 11:54 | 36.89994 | -76.19686 | 40 ft | 22 kts | 38° |
| 2026-05-05 11:55 | 36.90124 | -76.19566 | 42 ft | 24 kts | 33° |
| 2026-05-05 11:55 | 36.90274 | -76.19459 | 41 ft | 26 kts | 34° |
| 2026-05-05 11:55 | 36.90424 | -76.19318 | 42 ft | 28 kts | 38° |
| 2026-05-05 11:55 | 36.90582 | -76.19160 | 37 ft | 25 kts | 46° |
| 2026-05-05 11:56 | 36.90555 | -76.18998 | 41 ft | 19 kts | 145° |
| 2026-05-05 11:56 | 36.90448 | -76.19036 | 42 ft | 15 kts | 217° |
| 2026-05-05 11:56 | 36.90440 | -76.19043 | 42 ft | 0 kts | 217° |
| 2026-05-05 11:58 | 36.90266 | -76.19208 | 45 ft | 70 kts | 218° |
| 2026-05-05 11:58 | 36.89679 | -76.19766 | 43 ft | 139 kts | 215° |
| 2026-05-05 11:58 | 36.88754 | -76.20413 | 359 ft | 160 kts | 183° |
| 2026-05-05 11:59 | 36.87647 | -76.20649 | 1139 ft | 160 kts | 191° |
| 2026-05-05 11:59 | 36.86646 | -76.21289 | 1708 ft | 175 kts | 229° |
| 2026-05-05 11:59 | 36.85794 | -76.22487 | 2242 ft | 192 kts | 231° |
| 2026-05-05 11:59 | 36.84805 | -76.23748 | 2713 ft | 218 kts | 226° |
| 2026-05-05 12:00 | 36.84022 | -76.24612 | 3044 ft | 232 kts | 223° |
| 2026-05-05 12:00 | 36.82484 | -76.26564 | 4108 ft | 241 kts | 237° |
| 2026-05-05 12:00 | 36.81978 | -76.27802 | 4629 ft | 245 kts | 250° |
| 2026-05-05 12:00 | 36.81791 | -76.29935 | 5464 ft | 255 kts | 276° |
| 2026-05-05 12:01 | 36.82483 | -76.32004 | 6374 ft | 265 kts | 298° |
| 2026-05-05 12:01 | 36.83502 | -76.33961 | 7264 ft | 270 kts | 301° |
| 2026-05-05 12:01 | 36.84551 | -76.35914 | 8290 ft | 271 kts | 301° |
| 2026-05-05 12:01 | 36.85596 | -76.37878 | 9339 ft | 273 kts | 301° |
| 2026-05-05 12:02 | 36.86643 | -76.39864 | 10317 ft | 277 kts | 301° |
| 2026-05-05 12:02 | 36.87736 | -76.41951 | 10831 ft | 298 kts | 301° |
| 2026-05-05 12:02 | 36.88909 | -76.44200 | 11270 ft | 319 kts | 301° |
| 2026-05-05 12:02 | 36.90138 | -76.46552 | 12054 ft | 327 kts | 301° |
| 2026-05-05 12:03 | 36.91385 | -76.48956 | 12946 ft | 331 kts | 300° |
| 2026-05-05 12:03 | 36.92430 | -76.51531 | 13823 ft | 334 kts | 288° |
| 2026-05-05 12:03 | 36.92928 | -76.54374 | 14588 ft | 336 kts | 272° |
| 2026-05-05 12:03 | 36.92788 | -76.57248 | 15411 ft | 337 kts | 258° |
| 2026-05-05 12:04 | 36.92075 | -76.60088 | 16270 ft | 340 kts | 248° |
| 2026-05-05 12:04 | 36.91008 | -76.62741 | 17080 ft | 344 kts | 242° |
| 2026-05-05 12:04 | 36.89763 | -76.65266 | 17883 ft | 348 kts | 239° |
| 2026-05-05 12:04 | 36.88413 | -76.67802 | 18668 ft | 352 kts | 238° |
| 2026-05-05 12:05 | 36.87039 | -76.70352 | 19412 ft | 356 kts | 238° |
| 2026-05-05 12:05 | 36.85667 | -76.72940 | 20166 ft | 359 kts | 239° |
| 2026-05-05 12:05 | 36.84304 | -76.75570 | 20914 ft | 362 kts | 239° |
| 2026-05-05 12:05 | 36.82945 | -76.78240 | 21655 ft | 366 kts | 240° |
| 2026-05-05 12:06 | 36.81586 | -76.80941 | 22405 ft | 369 kts | 240° |
| 2026-05-05 12:06 | 36.80221 | -76.83669 | 23128 ft | 373 kts | 240° |
| 2026-05-05 12:06 | 36.78842 | -76.86429 | 23823 ft | 377 kts | 240° |
| 2026-05-05 12:06 | 36.77448 | -76.89216 | 24438 ft | 380 kts | 240° |
| 2026-05-05 12:07 | 36.76041 | -76.92024 | 25029 ft | 384 kts | 240° |
| 2026-05-05 12:07 | 36.74613 | -76.94868 | 25581 ft | 388 kts | 240° |
| 2026-05-05 12:07 | 36.73174 | -76.97729 | 26165 ft | 392 kts | 240° |
| 2026-05-05 12:07 | 36.71713 | -77.00630 | 26731 ft | 396 kts | 240° |
| 2026-05-05 12:08 | 36.70255 | -77.03560 | 27304 ft | 399 kts | 241° |
| 2026-05-05 12:08 | 36.68844 | -77.06552 | 27861 ft | 403 kts | 242° |
| 2026-05-05 12:08 | 36.67450 | -77.09597 | 28413 ft | 406 kts | 242° |
| 2026-05-05 12:08 | 36.66050 | -77.12678 | 28946 ft | 410 kts | 242° |
| 2026-05-05 12:09 | 36.64637 | -77.15777 | 29477 ft | 414 kts | 242° |
| 2026-05-05 12:09 | 36.63201 | -77.18903 | 29982 ft | 418 kts | 242° |
| 2026-05-05 12:09 | 36.61742 | -77.22058 | 30430 ft | 421 kts | 242° |
| 2026-05-05 12:09 | 36.60271 | -77.25223 | 30889 ft | 424 kts | 242° |
| 2026-05-05 12:10 | 36.58788 | -77.28403 | 31334 ft | 427 kts | 242° |
| 2026-05-05 12:10 | 36.57291 | -77.31607 | 31751 ft | 430 kts | 241° |
| 2026-05-05 12:10 | 36.55786 | -77.34825 | 32114 ft | 433 kts | 241° |
| 2026-05-05 12:10 | 36.54266 | -77.38074 | 32462 ft | 437 kts | 241° |
| 2026-05-05 12:11 | 36.52732 | -77.41350 | 32841 ft | 439 kts | 241° |
| 2026-05-05 12:11 | 36.51189 | -77.44642 | 33225 ft | 442 kts | 241° |
| 2026-05-05 12:11 | 36.49636 | -77.47952 | 33605 ft | 444 kts | 241° |
| 2026-05-05 12:11 | 36.48078 | -77.51276 | 33963 ft | 447 kts | 241° |
| 2026-05-05 12:12 | 36.46512 | -77.54619 | 34286 ft | 449 kts | 241° |
| 2026-05-05 12:12 | 36.44950 | -77.57941 | 34566 ft | 452 kts | 241° |
| 2026-05-05 12:12 | 36.43362 | -77.61309 | 34916 ft | 452 kts | 241° |
| 2026-05-05 12:12 | 36.41773 | -77.64676 | 35291 ft | 451 kts | 242° |
| 2026-05-05 12:13 | 36.40186 | -77.68037 | 35671 ft | 451 kts | 242° |
| 2026-05-05 12:13 | 36.38602 | -77.71391 | 36022 ft | 451 kts | 242° |
| 2026-05-05 12:13 | 36.37015 | -77.74748 | 36378 ft | 451 kts | 242° |
| 2026-05-05 12:13 | 36.35428 | -77.78103 | 36681 ft | 451 kts | 242° |
| 2026-05-05 12:14 | 36.33820 | -77.81451 | 36953 ft | 452 kts | 240° |
| 2026-05-05 12:14 | 36.31977 | -77.84620 | 37283 ft | 455 kts | 233° |
| 2026-05-05 12:14 | 36.29797 | -77.87483 | 37611 ft | 458 kts | 225° |
| 2026-05-05 12:14 | 36.27294 | -77.89938 | 37919 ft | 462 kts | 217° |
| 2026-05-05 12:15 | 36.24484 | -77.91914 | 38211 ft | 467 kts | 208° |
| 2026-05-05 12:15 | 36.21435 | -77.93352 | 38509 ft | 471 kts | 201° |
| 2026-05-05 12:15 | 36.18280 | -77.94502 | 38779 ft | 473 kts | 200° |
| 2026-05-05 12:15 | 36.15102 | -77.95557 | 39002 ft | 474 kts | 199° |
| 2026-05-05 12:16 | 36.08676 | -77.97609 | 39170 ft | 480 kts | 199° |
| 2026-05-05 12:16 | 36.05439 | -77.98650 | 39392 ft | 480 kts | 199° |
| 2026-05-05 12:16 | 36.02216 | -77.99698 | 39643 ft | 479 kts | 199° |
| 2026-05-05 12:17 | 35.98993 | -78.00755 | 39869 ft | 479 kts | 199° |
| 2026-05-05 12:17 | 35.95775 | -78.01818 | 40051 ft | 479 kts | 200° |
| 2026-05-05 12:17 | 35.89286 | -78.03971 | 40092 ft | 486 kts | 200° |
| 2026-05-05 12:18 | 35.82796 | -78.06117 | 40122 ft | 486 kts | 200° |
| 2026-05-05 12:18 | 35.76269 | -78.08269 | 40116 ft | 486 kts | 200° |
| 2026-05-05 12:19 | 35.69735 | -78.10419 | 40110 ft | 486 kts | 200° |
| 2026-05-05 12:19 | 35.63208 | -78.12565 | 40112 ft | 486 kts | 200° |
| 2026-05-05 12:20 | 35.56676 | -78.14709 | 40123 ft | 486 kts | 200° |
| 2026-05-05 12:20 | 35.50141 | -78.16850 | 40125 ft | 486 kts | 200° |
| 2026-05-05 12:21 | 35.43604 | -78.18988 | 40124 ft | 486 kts | 200° |
| 2026-05-05 12:21 | 35.37060 | -78.21124 | 40132 ft | 486 kts | 200° |
| 2026-05-05 12:22 | 35.30573 | -78.23411 | 40129 ft | 482 kts | 206° |
| 2026-05-05 12:22 | 35.24783 | -78.27277 | 40118 ft | 471 kts | 220° |
| 2026-05-05 12:23 | 35.19539 | -78.32060 | 40104 ft | 470 kts | 222° |
| 2026-05-05 12:23 | 35.14383 | -78.36970 | 40132 ft | 470 kts | 223° |
| 2026-05-05 12:24 | 35.09224 | -78.41867 | 40140 ft | 470 kts | 223° |
| 2026-05-05 12:24 | 35.04044 | -78.46738 | 40143 ft | 470 kts | 222° |
| 2026-05-05 12:25 | 34.98853 | -78.51596 | 40140 ft | 470 kts | 222° |
| 2026-05-05 12:25 | 34.93667 | -78.56438 | 40137 ft | 470 kts | 223° |
| 2026-05-05 12:26 | 34.88498 | -78.61259 | 40124 ft | 470 kts | 223° |
| 2026-05-05 12:26 | 34.83296 | -78.66104 | 40111 ft | 470 kts | 223° |
| 2026-05-05 12:27 | 34.78097 | -78.70937 | 40117 ft | 471 kts | 223° |
| 2026-05-05 12:27 | 34.72881 | -78.75781 | 40099 ft | 472 kts | 223° |
| 2026-05-05 12:28 | 34.67655 | -78.80624 | 40110 ft | 472 kts | 223° |
| 2026-05-05 12:28 | 34.62428 | -78.85460 | 40117 ft | 473 kts | 223° |
| 2026-05-05 12:29 | 34.57195 | -78.90294 | 40120 ft | 473 kts | 223° |
| 2026-05-05 12:29 | 34.51958 | -78.95124 | 40129 ft | 473 kts | 223° |
| 2026-05-05 12:30 | 34.46720 | -78.99953 | 40119 ft | 473 kts | 223° |
| 2026-05-05 12:30 | 34.41456 | -79.04755 | 40115 ft | 474 kts | 222° |
| 2026-05-05 12:31 | 34.36063 | -79.09386 | 40120 ft | 477 kts | 221° |
| 2026-05-05 12:31 | 34.30614 | -79.13978 | 40127 ft | 478 kts | 221° |
| 2026-05-05 12:32 | 34.25207 | -79.18567 | 40102 ft | 477 kts | 222° |
| 2026-05-05 12:32 | 34.20021 | -79.23510 | 40137 ft | 473 kts | 226° |
| 2026-05-05 12:33 | 34.15000 | -79.28624 | 40135 ft | 473 kts | 226° |
| 2026-05-05 12:33 | 34.09938 | -79.33708 | 40142 ft | 474 kts | 226° |
| 2026-05-05 12:34 | 34.04835 | -79.38742 | 40136 ft | 474 kts | 226° |
| 2026-05-05 12:34 | 33.99715 | -79.43756 | 40114 ft | 474 kts | 226° |
| 2026-05-05 12:35 | 33.94589 | -79.48767 | 40124 ft | 474 kts | 226° |
| 2026-05-05 12:35 | 33.89458 | -79.53779 | 40122 ft | 475 kts | 226° |
| 2026-05-05 12:36 | 33.84120 | -79.58519 | 40118 ft | 480 kts | 222° |
| 2026-05-05 12:36 | 33.78588 | -79.63023 | 40121 ft | 480 kts | 221° |
| 2026-05-05 12:37 | 33.73040 | -79.67514 | 40122 ft | 481 kts | 222° |
| 2026-05-05 12:37 | 33.67487 | -79.71997 | 40135 ft | 481 kts | 222° |
| 2026-05-05 12:38 | 33.61958 | -79.76452 | 40136 ft | 481 kts | 222° |
| 2026-05-05 12:38 | 33.56361 | -79.80954 | 40124 ft | 482 kts | 223° |
| 2026-05-05 12:39 | 33.50813 | -79.85412 | 40118 ft | 484 kts | 223° |
| 2026-05-05 12:39 | 33.45170 | -79.89935 | 40123 ft | 485 kts | 223° |
| 2026-05-05 12:40 | 33.39602 | -79.94392 | 40131 ft | 485 kts | 223° |
| 2026-05-05 12:40 | 33.33987 | -79.98879 | 40131 ft | 485 kts | 223° |
| 2026-05-05 12:41 | 33.28489 | -80.03267 | 40131 ft | 485 kts | 222° |
| 2026-05-05 12:41 | 33.22872 | -80.07743 | 40143 ft | 485 kts | 222° |
| 2026-05-05 12:42 | 33.17254 | -80.12212 | 40144 ft | 485 kts | 222° |
| 2026-05-05 12:42 | 33.11640 | -80.16672 | 40116 ft | 485 kts | 222° |
| 2026-05-05 12:43 | 33.06011 | -80.21138 | 40129 ft | 487 kts | 223° |
| 2026-05-05 12:43 | 33.00362 | -80.25611 | 40125 ft | 488 kts | 222° |
| 2026-05-05 12:44 | 32.94702 | -80.30085 | 40126 ft | 488 kts | 222° |
| 2026-05-05 12:44 | 32.89038 | -80.34555 | 40124 ft | 488 kts | 222° |
| 2026-05-05 12:45 | 32.83379 | -80.39015 | 40119 ft | 488 kts | 222° |
| 2026-05-05 12:45 | 32.77705 | -80.43480 | 40091 ft | 488 kts | 222° |
| 2026-05-05 12:46 | 32.72045 | -80.47927 | 40116 ft | 488 kts | 222° |
| 2026-05-05 12:46 | 32.66392 | -80.52361 | 40113 ft | 488 kts | 222° |
| 2026-05-05 12:47 | 32.60763 | -80.56770 | 39816 ft | 486 kts | 222° |
| 2026-05-05 12:47 | 32.57951 | -80.58967 | 39257 ft | 484 kts | 222° |
| 2026-05-05 12:47 | 32.55141 | -80.61165 | 38601 ft | 485 kts | 222° |
| 2026-05-05 12:48 | 32.52315 | -80.63375 | 37868 ft | 485 kts | 222° |
| 2026-05-05 12:48 | 32.49502 | -80.65569 | 37216 ft | 484 kts | 222° |
| 2026-05-05 12:48 | 32.46695 | -80.67758 | 36546 ft | 483 kts | 222° |
| 2026-05-05 12:48 | 32.43889 | -80.69945 | 35865 ft | 483 kts | 223° |
| 2026-05-05 12:49 | 32.41067 | -80.72144 | 35156 ft | 484 kts | 223° |
| 2026-05-05 12:49 | 32.38252 | -80.74336 | 34377 ft | 486 kts | 223° |
| 2026-05-05 12:49 | 32.35413 | -80.76545 | 33608 ft | 486 kts | 223° |
| 2026-05-05 12:49 | 32.32599 | -80.78729 | 33033 ft | 481 kts | 222° |
| 2026-05-05 12:50 | 32.29817 | -80.80886 | 32459 ft | 476 kts | 222° |
| 2026-05-05 12:50 | 32.27056 | -80.83026 | 31858 ft | 472 kts | 222° |
| 2026-05-05 12:50 | 32.24362 | -80.85114 | 31328 ft | 467 kts | 221° |
| 2026-05-05 12:50 | 32.21670 | -80.87200 | 30747 ft | 464 kts | 221° |
| 2026-05-05 12:51 | 32.18967 | -80.89294 | 30164 ft | 460 kts | 221° |
| 2026-05-05 12:51 | 32.16223 | -80.91235 | 29503 ft | 463 kts | 214° |
| 2026-05-05 12:51 | 32.13196 | -80.92590 | 28932 ft | 469 kts | 204° |
| 2026-05-05 12:51 | 32.10055 | -80.93600 | 28336 ft | 466 kts | 201° |
| 2026-05-05 12:52 | 32.06920 | -80.94562 | 27770 ft | 462 kts | 201° |
| 2026-05-05 12:52 | 32.03827 | -80.95515 | 27209 ft | 457 kts | 201° |
| 2026-05-05 12:52 | 32.00767 | -80.96462 | 26637 ft | 453 kts | 201° |
| 2026-05-05 12:52 | 31.97735 | -80.97402 | 26096 ft | 449 kts | 201° |
| 2026-05-05 12:53 | 31.94730 | -80.98337 | 25545 ft | 445 kts | 201° |
| 2026-05-05 12:53 | 31.89498 | -80.99964 | 24568 ft | 440 kts | 200° |
| 2026-05-05 12:53 | 31.86592 | -81.00869 | 24016 ft | 436 kts | 200° |
| 2026-05-05 12:54 | 31.80783 | -81.02715 | 23125 ft | 422 kts | 200° |
| 2026-05-05 12:54 | 31.77971 | -81.03609 | 22713 ft | 416 kts | 200° |
| 2026-05-05 12:54 | 31.75183 | -81.04497 | 22285 ft | 415 kts | 200° |
| 2026-05-05 12:55 | 31.72406 | -81.05381 | 21897 ft | 413 kts | 200° |
| 2026-05-05 12:55 | 31.69644 | -81.06259 | 21498 ft | 410 kts | 200° |
| 2026-05-05 12:55 | 31.66901 | -81.07129 | 21103 ft | 407 kts | 200° |
| 2026-05-05 12:55 | 31.64168 | -81.07996 | 20706 ft | 404 kts | 200° |
| 2026-05-05 12:56 | 31.61468 | -81.08851 | 20321 ft | 401 kts | 200° |
| 2026-05-05 12:56 | 31.58784 | -81.09702 | 19921 ft | 398 kts | 199° |
| 2026-05-05 12:56 | 31.56122 | -81.10544 | 19525 ft | 395 kts | 199° |
| 2026-05-05 12:56 | 31.53517 | -81.11368 | 19143 ft | 392 kts | 199° |
| 2026-05-05 12:57 | 31.50858 | -81.12209 | 18771 ft | 389 kts | 199° |
| 2026-05-05 12:57 | 31.48284 | -81.13022 | 18382 ft | 386 kts | 199° |
| 2026-05-05 12:57 | 31.45693 | -81.13840 | 17980 ft | 384 kts | 199° |
| 2026-05-05 12:57 | 31.43118 | -81.14653 | 17598 ft | 382 kts | 199° |
| 2026-05-05 12:58 | 31.40527 | -81.15471 | 17225 ft | 380 kts | 199° |
| 2026-05-05 12:58 | 31.37990 | -81.16271 | 16862 ft | 377 kts | 199° |
| 2026-05-05 12:58 | 31.35451 | -81.17071 | 16420 ft | 375 kts | 198° |
| 2026-05-05 12:58 | 31.32946 | -81.17860 | 16027 ft | 372 kts | 198° |
| 2026-05-05 12:59 | 31.30448 | -81.18646 | 15662 ft | 370 kts | 198° |
| 2026-05-05 12:59 | 31.27971 | -81.19425 | 15295 ft | 368 kts | 198° |
| 2026-05-05 12:59 | 31.25542 | -81.20189 | 14946 ft | 366 kts | 198° |
| 2026-05-05 13:00 | 31.20631 | -81.21683 | 14208 ft | 363 kts | 194° |
| 2026-05-05 13:00 | 31.18154 | -81.22182 | 13850 ft | 361 kts | 191° |
| 2026-05-05 13:01 | 31.10792 | -81.23608 | 12767 ft | 354 kts | 192° |
| 2026-05-05 13:01 | 31.08373 | -81.24100 | 12423 ft | 352 kts | 192° |
| 2026-05-05 13:01 | 31.05982 | -81.24590 | 12174 ft | 343 kts | 192° |
| 2026-05-05 13:01 | 31.03678 | -81.25064 | 11963 ft | 329 kts | 192° |
| 2026-05-05 13:02 | 31.01471 | -81.25519 | 11752 ft | 317 kts | 192° |
| 2026-05-05 13:02 | 30.99336 | -81.25960 | 11531 ft | 306 kts | 192° |
| 2026-05-05 13:02 | 30.97263 | -81.26389 | 11184 ft | 300 kts | 191° |
| 2026-05-05 13:02 | 30.95217 | -81.26814 | 10791 ft | 297 kts | 191° |
| 2026-05-05 13:03 | 30.93199 | -81.27231 | 10474 ft | 291 kts | 192° |
| 2026-05-05 13:03 | 30.91221 | -81.27642 | 10172 ft | 287 kts | 191° |
| 2026-05-05 13:03 | 30.89259 | -81.28053 | 9839 ft | 286 kts | 191° |
| 2026-05-05 13:03 | 30.87297 | -81.28457 | 9647 ft | 286 kts | 191° |
| 2026-05-05 13:04 | 30.85338 | -81.28876 | 9495 ft | 286 kts | 193° |
| 2026-05-05 13:04 | 30.83501 | -81.29693 | 9344 ft | 283 kts | 213° |
| 2026-05-05 13:04 | 30.82069 | -81.31235 | 9174 ft | 281 kts | 231° |
| 2026-05-05 13:04 | 30.80889 | -81.33044 | 9020 ft | 281 kts | 234° |
| 2026-05-05 13:05 | 30.79741 | -81.34875 | 8869 ft | 281 kts | 234° |
| 2026-05-05 13:05 | 30.78583 | -81.36713 | 8722 ft | 280 kts | 234° |
| 2026-05-05 13:05 | 30.77427 | -81.38533 | 8566 ft | 280 kts | 234° |
| 2026-05-05 13:05 | 30.76270 | -81.40349 | 8406 ft | 280 kts | 234° |
| 2026-05-05 13:06 | 30.75109 | -81.42165 | 8273 ft | 279 kts | 233° |
| 2026-05-05 13:06 | 30.73952 | -81.43972 | 8106 ft | 279 kts | 233° |
| 2026-05-05 13:06 | 30.72792 | -81.45781 | 7961 ft | 279 kts | 233° |
| 2026-05-05 13:06 | 30.71648 | -81.47564 | 7804 ft | 278 kts | 233° |
| 2026-05-05 13:07 | 30.70479 | -81.49386 | 7664 ft | 278 kts | 233° |
| 2026-05-05 13:07 | 30.69323 | -81.51186 | 7496 ft | 278 kts | 233° |
| 2026-05-05 13:07 | 30.68185 | -81.52956 | 7355 ft | 278 kts | 233° |
| 2026-05-05 13:07 | 30.67029 | -81.54752 | 7197 ft | 277 kts | 234° |
| 2026-05-05 13:08 | 30.65879 | -81.56540 | 7025 ft | 276 kts | 234° |
| 2026-05-05 13:08 | 30.64729 | -81.58327 | 6886 ft | 276 kts | 234° |
| 2026-05-05 13:08 | 30.63579 | -81.60114 | 6720 ft | 276 kts | 234° |
| 2026-05-05 13:08 | 30.62429 | -81.61900 | 6573 ft | 275 kts | 234° |
| 2026-05-05 13:09 | 30.61280 | -81.63682 | 6412 ft | 275 kts | 234° |
| 2026-05-05 13:09 | 30.60135 | -81.65459 | 6260 ft | 275 kts | 234° |
| 2026-05-05 13:09 | 30.58994 | -81.67228 | 6105 ft | 271 kts | 234° |
| 2026-05-05 13:09 | 30.57864 | -81.68976 | 5958 ft | 270 kts | 234° |
| 2026-05-05 13:10 | 30.56740 | -81.70716 | 5810 ft | 270 kts | 234° |
| 2026-05-05 13:10 | 30.55617 | -81.72455 | 5660 ft | 269 kts | 234° |
| 2026-05-05 13:10 | 30.54496 | -81.74192 | 5517 ft | 268 kts | 233° |
| 2026-05-05 13:10 | 30.53377 | -81.75926 | 5355 ft | 268 kts | 233° |
| 2026-05-05 13:11 | 30.52257 | -81.77657 | 5221 ft | 268 kts | 233° |
| 2026-05-05 13:11 | 30.51136 | -81.79390 | 5068 ft | 268 kts | 233° |
| 2026-05-05 13:11 | 30.50020 | -81.81115 | 4924 ft | 268 kts | 233° |
| 2026-05-05 13:11 | 30.48902 | -81.82843 | 4791 ft | 268 kts | 233° |
| 2026-05-05 13:12 | 30.47782 | -81.84570 | 4646 ft | 268 kts | 233° |
| 2026-05-05 13:12 | 30.46681 | -81.86271 | 4498 ft | 267 kts | 233° |
| 2026-05-05 13:12 | 30.45551 | -81.88015 | 4331 ft | 267 kts | 233° |
| 2026-05-05 13:12 | 30.44435 | -81.89734 | 4201 ft | 267 kts | 233° |
| 2026-05-05 13:13 | 30.43332 | -81.91433 | 4049 ft | 266 kts | 233° |
| 2026-05-05 13:13 | 30.42108 | -81.93033 | 3894 ft | 267 kts | 219° |
| 2026-05-05 13:13 | 30.40455 | -81.93952 | 3766 ft | 266 kts | 190° |
| 2026-05-05 13:13 | 30.38630 | -81.93815 | 3599 ft | 265 kts | 161° |
| 2026-05-05 13:14 | 30.37099 | -81.92681 | 3453 ft | 264 kts | 133° |
| 2026-05-05 13:14 | 30.36221 | -81.90839 | 3312 ft | 263 kts | 104° |
| 2026-05-05 13:14 | 30.36199 | -81.88799 | 3197 ft | 251 kts | 76° |
| 2026-05-05 13:14 | 30.36945 | -81.87048 | 3098 ft | 238 kts | 51° |
| 2026-05-05 13:15 | 30.38184 | -81.85851 | 2992 ft | 226 kts | 32° |
| 2026-05-05 13:15 | 30.39502 | -81.84940 | 2892 ft | 215 kts | 31° |
| 2026-05-05 13:15 | 30.40765 | -81.84091 | 2798 ft | 204 kts | 31° |
| 2026-05-05 13:15 | 30.41957 | -81.83284 | 2714 ft | 195 kts | 31° |
| 2026-05-05 13:16 | 30.43120 | -81.82489 | 2608 ft | 193 kts | 32° |
| 2026-05-05 13:16 | 30.44275 | -81.81692 | 2481 ft | 194 kts | 32° |
| 2026-05-05 13:16 | 30.45437 | -81.80890 | 2304 ft | 194 kts | 32° |
| 2026-05-05 13:16 | 30.46474 | -81.79919 | 2073 ft | 191 kts | 53° |
| 2026-05-05 13:17 | 30.47117 | -81.78625 | 2013 ft | 177 kts | 78° |
| 2026-05-05 13:17 | 30.47393 | -81.77320 | 2043 ft | 157 kts | 78° |
| 2026-05-05 13:17 | 30.47702 | -81.76191 | 2026 ft | 139 kts | 72° |
| 2026-05-05 13:17 | 30.48048 | -81.75178 | 2017 ft | 133 kts | 73° |
| 2026-05-05 13:18 | 30.48349 | -81.74159 | 2012 ft | 135 kts | 74° |
| 2026-05-05 13:18 | 30.48669 | -81.73098 | 1730 ft | 148 kts | 73° |
| 2026-05-05 13:18 | 30.49030 | -81.71897 | 1016 ft | 169 kts | 73° |
| 2026-05-05 13:18 | 30.49449 | -81.70519 | 180 ft | 190 kts | 70° |
| 2026-05-05 13:19 | 30.49874 | -81.69150 | 47 ft | 167 kts | 70° |
| 2026-05-05 13:19 | 30.50227 | -81.68011 | 46 ft | 130 kts | 70° |
| 2026-05-05 13:19 | 30.50446 | -81.67307 | 37 ft | 37 kts | 70° |
| 2026-05-05 13:19 | 30.50446 | -81.67139 | 38 ft | 13 kts | 139° |
| 2026-05-05 13:20 | 30.50370 | -81.67098 | 40 ft | 11 kts | 165° |
| 2026-05-05 13:20 | 30.50335 | -81.67121 | 40 ft | 13 kts | 232° |
| 2026-05-05 13:20 | 30.50267 | -81.67321 | 38 ft | 16 kts | 251° |
| 2026-05-05 13:20 | 30.50264 | -81.67332 | 38 ft | 0 kts | 250° |
| 2026-05-05 13:25 | 30.50233 | -81.67431 | 39 ft | 16 kts | 250° |
| 2026-05-05 13:25 | 30.50197 | -81.67549 | 38 ft | 16 kts | 250° |
| 2026-05-05 13:25 | 30.50161 | -81.67668 | 40 ft | 16 kts | 250° |
| 2026-05-05 13:26 | 30.50124 | -81.67786 | 43 ft | 16 kts | 250° |
| 2026-05-05 13:26 | 30.50088 | -81.67904 | 45 ft | 16 kts | 250° |
| 2026-05-05 13:26 | 30.50052 | -81.68022 | 45 ft | 16 kts | 250° |
| 2026-05-05 13:26 | 30.50016 | -81.68140 | 45 ft | 16 kts | 250° |
| 2026-05-05 13:27 | 30.49979 | -81.68258 | 44 ft | 16 kts | 250° |
| 2026-05-05 13:27 | 30.49946 | -81.68368 | 42 ft | 6 kts | 250° |
| 2026-05-05 13:27 | 30.49893 | -81.68441 | 42 ft | 16 kts | 196° |
| 2026-05-05 13:27 | 30.49815 | -81.68468 | 42 ft | 16 kts | 202° |
| 2026-05-05 13:28 | 30.49710 | -81.68498 | 42 ft | 16 kts | 184° |
| 2026-05-05 13:28 | 30.49602 | -81.68503 | 43 ft | 16 kts | 190° |
| 2026-05-05 13:28 | 30.49535 | -81.68548 | 44 ft | 16 kts | 227° |
| 2026-05-05 13:28 | 30.49479 | -81.68641 | 44 ft | 5 kts | 224° |
| 2026-05-05 13:29 | 30.49437 | -81.68688 | 45 ft | 6 kts | 227° |
| 2026-05-05 13:29 | 30.49376 | -81.68705 | 44 ft | 12 kts | 167° |
| 2026-05-05 13:29 | 30.49342 | -81.68669 | 45 ft | 4 kts | 115° |
| 2026-05-05 13:29 | 30.49332 | -81.68641 | 45 ft | 4 kts | 108° |
| 2026-05-05 13:30 | 30.49325 | -81.68614 | 45 ft | 4 kts | 106° |
| 2026-05-05 13:30 | 30.49321 | -81.68599 | 46 ft | 1 kts | 105° |
| 2026-05-05 13:30 | 30.49322 | -81.68598 | 46 ft | 0 kts | 105° |